createdAt,value
2019-01-10T00:00:15.120Z,1.50
2019-01-10T00:02:43.557Z,1.50
2019-01-10T00:05:12.400Z,1.40
2019-01-10T00:07:40.888Z,1.50
2019-01-10T00:10:13.947Z,1.50
2019-01-10T00:12:42.450Z,1.50
2019-01-10T00:15:13.413Z,1.50
2019-01-10T00:17:41.896Z,1.50
2019-01-10T00:20:11.940Z,1.50
2019-01-10T00:22:40.368Z,1.50
2019-01-10T00:25:10.945Z,1.50
2019-01-10T00:27:39.365Z,1.60
2019-01-10T00:30:13.436Z,1.60
2019-01-10T00:32:41.924Z,1.60
2019-01-10T00:35:10.882Z,1.60
2019-01-10T00:37:39.577Z,1.60
2019-01-10T00:40:10.720Z,1.60
2019-01-10T00:42:48.574Z,1.60
2019-01-10T00:45:12.223Z,1.50
2019-01-10T00:47:40.786Z,1.60
2019-01-10T00:50:14.696Z,1.50
2019-01-10T00:52:43.202Z,1.50
2019-01-10T00:55:11.855Z,1.40
2019-01-10T00:57:41.050Z,1.40
2019-01-10T01:00:12.532Z,1.40
2019-01-10T01:02:40.983Z,1.40
2019-01-10T01:05:11.820Z,1.40
2019-01-10T01:07:40.312Z,1.30
2019-01-10T01:10:14.454Z,1.30
2019-01-10T01:12:42.949Z,1.30
2019-01-10T01:15:13.696Z,1.40
2019-01-10T01:17:42.291Z,1.40
2019-01-10T01:20:12.529Z,1.40
2019-01-10T01:22:40.992Z,1.40
2019-01-10T01:25:11.178Z,1.50
2019-01-10T01:27:39.664Z,1.50
2019-01-10T01:30:11.393Z,1.50
2019-01-10T01:32:39.800Z,1.60
2019-01-10T01:35:08.882Z,1.60
2019-01-10T01:37:37.298Z,1.60
2019-01-10T01:40:09.358Z,1.60
2019-01-10T01:42:37.784Z,1.60
2019-01-10T01:45:08.641Z,1.60
2019-01-10T01:47:37.069Z,1.60
2019-01-10T01:50:08.572Z,1.60
2019-01-10T01:52:36.968Z,1.70
2019-01-10T01:55:06.137Z,1.70
2019-01-10T01:57:34.559Z,1.70
2019-01-10T02:00:03.070Z,1.70
2019-01-10T02:02:31.481Z,1.70
2019-01-10T02:04:59.896Z,1.70
2019-01-10T02:07:28.301Z,1.70
2019-01-10T02:09:56.724Z,1.70
2019-01-10T02:12:25.204Z,1.70
2019-01-10T02:14:53.643Z,1.60
2019-01-10T02:17:22.044Z,1.60
2019-01-10T02:19:50.477Z,1.60
2019-01-10T02:22:19.020Z,1.60
2019-01-10T02:24:47.449Z,1.60
2019-01-10T02:27:15.868Z,1.60
2019-01-10T02:29:44.310Z,1.70
2019-01-10T02:32:12.714Z,1.70
2019-01-10T02:34:41.153Z,1.70
2019-01-10T02:37:09.538Z,1.70
2019-01-10T02:39:37.976Z,1.80
2019-01-10T02:42:06.409Z,1.70
2019-01-10T02:44:34.859Z,1.70
2019-01-10T02:47:03.325Z,1.70
2019-01-10T02:49:31.766Z,1.80
2019-01-10T02:52:00.186Z,1.80
2019-01-10T02:54:28.601Z,1.80
2019-01-10T02:56:57.009Z,1.70
2019-01-10T02:59:25.452Z,1.70
2019-01-10T03:01:53.875Z,1.70
2019-01-10T03:04:22.295Z,1.70
2019-01-10T03:06:50.705Z,1.70
2019-01-10T03:09:19.197Z,1.70
2019-01-10T03:11:47.625Z,1.60
2019-01-10T03:14:16.046Z,1.70
2019-01-10T03:16:44.471Z,1.70
2019-01-10T03:19:12.961Z,1.70
2019-01-10T03:21:41.389Z,1.60
2019-01-10T03:24:09.773Z,1.60
2019-01-10T03:26:38.202Z,1.70
2019-01-10T03:29:06.606Z,1.70
2019-01-10T03:31:35.051Z,1.70
2019-01-10T03:34:03.590Z,1.80
2019-01-10T03:36:32.041Z,1.90
2019-01-10T03:39:00.462Z,1.80
2019-01-10T03:41:28.903Z,1.70
2019-01-10T03:43:57.309Z,1.70
2019-01-10T03:46:25.738Z,1.70
2019-01-10T03:48:54.159Z,1.80
2019-01-10T03:51:22.573Z,1.80
2019-01-10T03:53:51.013Z,1.80
2019-01-10T03:56:19.425Z,1.80
2019-01-10T03:58:47.838Z,1.80
2019-01-10T04:01:16.264Z,1.70
2019-01-10T04:03:44.767Z,1.70
2019-01-10T04:06:13.185Z,1.70
2019-01-10T04:08:41.597Z,1.80
2019-01-10T04:11:10.022Z,1.80
2019-01-10T04:13:38.442Z,1.80
2019-01-10T04:16:06.882Z,1.80
2019-01-10T04:18:35.280Z,1.80
2019-01-10T04:21:03.702Z,1.70
2019-01-10T04:23:32.120Z,1.70
2019-01-10T04:26:00.541Z,1.70
2019-01-10T04:28:28.965Z,1.70
2019-01-10T04:30:57.385Z,1.70
2019-01-10T04:33:25.794Z,1.70
2019-01-10T04:35:54.235Z,1.60
2019-01-10T04:38:22.652Z,1.70
2019-01-10T04:40:51.096Z,1.60
2019-01-10T04:43:19.501Z,1.70
2019-01-10T04:45:47.940Z,1.70
2019-01-10T04:48:16.344Z,1.70
2019-01-10T04:50:44.764Z,1.70
2019-01-10T04:53:13.199Z,1.80
2019-01-10T04:55:41.613Z,1.80
2019-01-10T04:58:12.829Z,1.80
2019-01-10T05:00:41.263Z,1.80
2019-01-10T05:03:09.741Z,1.80
2019-01-10T05:05:38.162Z,1.90
2019-01-10T05:08:06.573Z,1.90
2019-01-10T05:10:35.034Z,1.80
2019-01-10T05:13:03.436Z,1.90
2019-01-10T05:15:31.891Z,1.80
2019-01-10T05:18:00.305Z,1.80
2019-01-10T05:20:28.722Z,1.80
2019-01-10T05:22:57.138Z,1.90
2019-01-10T05:25:25.574Z,1.90
2019-01-10T05:27:53.972Z,2.00
2019-01-10T05:30:23.246Z,2.10
2019-01-10T05:32:52.145Z,2.00
2019-01-10T05:35:20.599Z,2.00
2019-01-10T05:37:49.137Z,1.90
2019-01-10T05:40:17.566Z,1.80
2019-01-10T05:42:46.014Z,1.90
2019-01-10T05:45:16.553Z,1.90
2019-01-10T05:47:44.982Z,1.90
2019-01-10T05:50:17.601Z,1.80
2019-01-10T05:52:45.374Z,1.70
2019-01-10T05:55:16.240Z,1.80
2019-01-10T05:57:44.679Z,1.70
2019-01-10T06:00:16.509Z,1.70
2019-01-10T06:02:44.939Z,1.60
2019-01-10T06:05:13.481Z,1.60
2019-01-10T06:07:41.919Z,1.60
2019-01-10T06:10:24.883Z,1.70
2019-01-10T06:12:53.310Z,1.70
2019-01-10T06:15:21.857Z,1.60
2019-01-10T06:17:50.377Z,1.60
2019-01-10T06:20:21.027Z,1.60
2019-01-10T06:22:49.449Z,1.60
2019-01-10T06:25:18.930Z,1.60
2019-01-10T06:27:47.357Z,1.50
2019-01-10T06:30:18.676Z,1.60
2019-01-10T06:32:47.105Z,1.60
2019-01-10T06:35:15.584Z,1.60
2019-01-10T06:37:44.076Z,1.60
2019-01-10T06:40:15.731Z,1.60
2019-01-10T06:42:52.238Z,1.70
2019-01-10T06:45:20.731Z,1.70
2019-01-10T06:47:49.225Z,1.60
2019-01-10T06:50:18.104Z,1.60
2019-01-10T06:52:46.882Z,1.60
2019-01-10T06:55:15.315Z,1.60
2019-01-10T06:57:43.812Z,1.60
2019-01-10T07:00:18.645Z,1.60
2019-01-10T07:02:47.508Z,1.60
2019-01-10T07:05:15.984Z,1.60
2019-01-10T07:07:44.521Z,1.70
2019-01-10T07:10:16.023Z,1.70
2019-01-10T07:12:44.453Z,1.70
2019-01-10T07:15:13.019Z,1.70
2019-01-10T07:17:41.447Z,1.70
2019-01-10T07:20:11.511Z,1.70
2019-01-10T07:22:45.347Z,1.70
2019-01-10T07:25:13.774Z,1.70
2019-01-10T07:27:42.434Z,1.70
2019-01-10T07:30:13.917Z,1.80
2019-01-10T07:32:42.341Z,1.80
2019-01-10T07:35:11.089Z,1.90
2019-01-10T07:37:39.581Z,1.90
2019-01-10T07:40:11.089Z,1.90
2019-01-10T07:42:39.523Z,1.90
2019-01-10T07:45:14.168Z,1.90
2019-01-10T07:47:49.261Z,1.90
2019-01-10T07:50:19.227Z,1.90
2019-01-10T07:52:48.388Z,1.90
2019-01-10T07:55:16.873Z,1.90
2019-01-10T07:57:45.315Z,1.90
2019-01-10T08:00:17.061Z,1.90
2019-01-10T08:02:45.631Z,2.00
2019-01-10T08:05:14.129Z,1.90
2019-01-10T08:07:42.697Z,2.00
2019-01-10T08:10:14.251Z,2.10
2019-01-10T08:12:42.741Z,2.20
2019-01-10T08:15:14.252Z,2.30
2019-01-10T08:17:42.681Z,2.40
2019-01-10T08:20:11.375Z,2.50
2019-01-10T08:22:40.019Z,2.50
2019-01-10T08:25:09.489Z,2.50
2019-01-10T08:27:37.913Z,2.60
2019-01-10T08:30:15.154Z,2.50
2019-01-10T08:32:43.586Z,2.30
2019-01-10T08:35:13.453Z,2.20
2019-01-10T08:37:41.909Z,2.10
2019-01-10T08:40:10.769Z,2.10
2019-01-10T08:42:39.190Z,2.00
2019-01-10T08:45:09.704Z,2.10
2019-01-10T08:47:38.167Z,2.10
2019-01-10T08:50:12.627Z,2.10
2019-01-10T08:52:41.055Z,2.10
2019-01-10T08:55:10.000Z,2.00
2019-01-10T08:57:38.456Z,2.00
2019-01-10T09:00:12.967Z,1.90
2019-01-10T09:02:41.423Z,1.90
2019-01-10T09:05:12.175Z,1.90
2019-01-10T09:07:40.247Z,1.90
2019-01-10T09:10:20.486Z,1.90
2019-01-10T09:12:49.076Z,2.00
2019-01-10T09:15:23.244Z,2.00
2019-01-10T09:17:47.803Z,2.00
2019-01-10T09:20:16.273Z,2.10
2019-01-10T09:22:44.765Z,2.20
2019-01-10T09:25:13.240Z,2.20
2019-01-10T09:27:41.670Z,2.20
2019-01-10T09:30:13.203Z,2.20
2019-01-10T09:32:41.710Z,2.30
2019-01-10T09:35:10.203Z,2.30
2019-01-10T09:37:39.589Z,2.30
2019-01-10T09:40:13.457Z,2.40
2019-01-10T09:42:42.346Z,2.40
2019-01-10T09:45:14.019Z,2.50
2019-01-10T09:47:42.569Z,2.60
2019-01-10T09:50:17.120Z,2.70
2019-01-10T09:52:46.492Z,2.80
2019-01-10T09:55:16.007Z,2.90
2019-01-10T09:57:44.412Z,2.80
2019-01-10T10:00:16.061Z,2.80
2019-01-10T10:02:44.472Z,2.70
2019-01-10T10:05:12.965Z,2.80
2019-01-10T10:07:41.445Z,2.80
2019-01-10T10:10:15.591Z,2.90
2019-01-10T10:12:44.090Z,3.00
2019-01-10T10:15:13.854Z,3.00
2019-01-10T10:17:42.256Z,3.00
2019-01-10T10:20:14.860Z,3.20
2019-01-10T10:22:43.319Z,3.20
2019-01-10T10:25:11.845Z,3.20
2019-01-10T10:27:40.314Z,3.10
2019-01-10T10:30:11.952Z,3.00
2019-01-10T10:32:40.380Z,3.00
2019-01-10T10:35:09.155Z,2.80
2019-01-10T10:37:37.566Z,2.80
2019-01-10T10:40:09.069Z,2.80
2019-01-10T10:42:37.472Z,2.70
2019-01-10T10:45:09.551Z,2.70
2019-01-10T10:47:37.953Z,2.80
2019-01-10T10:50:09.481Z,2.80
2019-01-10T10:52:37.882Z,2.80
2019-01-10T10:55:06.873Z,2.80
2019-01-10T10:57:35.295Z,2.80
2019-01-10T11:00:09.570Z,2.80
2019-01-10T11:02:37.976Z,2.80
2019-01-10T11:05:07.240Z,2.90
2019-01-10T11:07:35.724Z,2.80
2019-01-10T11:10:07.130Z,2.80
2019-01-10T11:12:35.684Z,2.80
2019-01-10T11:15:06.454Z,2.80
2019-01-10T11:17:34.879Z,2.80
2019-01-10T11:20:04.673Z,2.80
2019-01-10T11:22:33.072Z,2.80
2019-01-10T11:25:01.576Z,2.80
2019-01-10T11:27:30.973Z,2.90
2019-01-10T11:29:59.404Z,2.80
2019-01-10T11:32:27.832Z,2.80
2019-01-10T11:34:56.303Z,2.80
2019-01-10T11:37:24.713Z,2.80
2019-01-10T11:39:53.137Z,2.80
2019-01-10T11:42:21.561Z,2.70
2019-01-10T11:44:49.990Z,2.80
2019-01-10T11:47:18.393Z,2.80
2019-01-10T11:49:48.772Z,2.90
2019-01-10T11:52:17.209Z,3.00
2019-01-10T11:54:45.745Z,3.10
2019-01-10T11:57:14.151Z,3.20
2019-01-10T11:59:42.564Z,3.20
2019-01-10T12:02:10.991Z,3.30
2019-01-10T12:04:39.428Z,3.20
2019-01-10T12:07:07.905Z,3.10
2019-01-10T12:09:36.347Z,3.10
2019-01-10T12:12:04.753Z,3.10
2019-01-10T12:14:34.199Z,3.20
2019-01-10T12:17:02.619Z,3.30
2019-01-10T12:19:31.032Z,3.30
2019-01-10T12:21:59.449Z,3.30
2019-01-10T12:24:27.877Z,3.40
2019-01-10T12:26:56.288Z,3.40
2019-01-10T12:29:24.714Z,3.30
2019-01-10T12:31:54.067Z,3.30
2019-01-10T12:34:22.506Z,3.20
2019-01-10T12:37:00.005Z,3.20
2019-01-10T12:39:21.083Z,3.20
2019-01-10T12:41:49.493Z,3.10
2019-01-10T12:44:17.934Z,3.00
2019-01-10T12:46:46.355Z,3.10
2019-01-10T12:49:14.762Z,3.10
2019-01-10T12:51:43.228Z,3.10
2019-01-10T12:54:11.700Z,3.20
2019-01-10T12:56:40.135Z,3.10
2019-01-10T12:59:08.542Z,3.10
2019-01-10T13:01:36.965Z,3.20
2019-01-10T13:04:05.455Z,3.10
2019-01-10T13:06:33.906Z,3.10
2019-01-10T13:09:02.310Z,3.10
2019-01-10T13:11:30.754Z,3.10
2019-01-10T13:13:59.736Z,3.10
2019-01-10T13:16:28.286Z,3.00
2019-01-10T13:18:56.711Z,2.90
2019-01-10T13:21:25.146Z,2.90
2019-01-10T13:23:53.564Z,2.80
2019-01-10T13:26:22.003Z,2.80
2019-01-10T13:28:50.442Z,2.90
2019-01-10T13:31:18.861Z,2.90
2019-01-10T13:33:47.266Z,2.90
2019-01-10T13:36:15.707Z,2.90
2019-01-10T13:38:44.106Z,2.80
2019-01-10T13:41:12.529Z,2.90
2019-01-10T13:43:40.936Z,2.90
2019-01-10T13:46:10.430Z,2.90
2019-01-10T13:48:38.848Z,2.90
2019-01-10T13:51:07.273Z,2.90
2019-01-10T13:53:35.695Z,2.90
2019-01-10T13:56:04.378Z,3.00
2019-01-10T13:58:32.782Z,3.00
2019-01-10T14:01:01.228Z,2.90
2019-01-10T14:03:29.647Z,3.00
2019-01-10T14:05:58.072Z,3.00
2019-01-10T14:08:26.547Z,3.00
2019-01-10T14:10:54.996Z,3.00
2019-01-10T14:13:23.449Z,3.00
2019-01-10T14:15:51.859Z,2.90
2019-01-10T14:18:20.277Z,2.90
2019-01-10T14:20:48.756Z,2.80
2019-01-10T14:23:17.190Z,2.80
2019-01-10T14:25:45.661Z,2.80
2019-01-10T14:28:14.118Z,2.80
2019-01-10T14:30:42.774Z,2.90
2019-01-10T14:33:11.741Z,2.90
2019-01-10T14:35:40.152Z,2.90
2019-01-10T14:38:08.739Z,2.90
2019-01-10T14:40:38.431Z,2.90
2019-01-10T14:43:06.923Z,3.00
2019-01-10T14:45:36.005Z,3.00
2019-01-10T14:48:06.373Z,3.00
2019-01-10T14:50:34.838Z,3.10
2019-01-10T14:53:03.357Z,3.10
2019-01-10T14:55:31.928Z,3.20
2019-01-10T14:58:00.638Z,3.10
2019-01-10T15:00:29.080Z,3.10
2019-01-10T15:02:57.667Z,3.00
2019-01-10T15:05:26.146Z,3.00
2019-01-10T15:07:54.582Z,3.00
2019-01-10T15:10:23.007Z,3.00
2019-01-10T15:12:51.451Z,3.00
2019-01-10T15:15:21.509Z,2.90
2019-01-10T15:17:49.943Z,2.90
2019-01-10T15:20:21.103Z,2.80
2019-01-10T15:22:49.539Z,2.70
2019-01-10T15:25:17.938Z,2.70
2019-01-10T15:27:46.408Z,2.60
2019-01-10T15:30:19.881Z,2.60
2019-01-10T15:32:48.301Z,2.60
2019-01-10T15:35:16.877Z,2.50
2019-01-10T15:37:45.340Z,2.50
2019-01-10T15:40:22.688Z,2.50
2019-01-10T15:42:51.141Z,2.50
2019-01-10T15:45:19.717Z,2.40
2019-01-10T15:47:48.162Z,2.40
2019-01-10T15:50:18.609Z,2.40
2019-01-10T15:52:47.271Z,2.50
2019-01-10T15:55:20.282Z,2.50
2019-01-10T15:57:48.876Z,2.50
2019-01-10T16:00:22.141Z,2.60
2019-01-10T16:02:50.906Z,2.50
2019-01-10T16:05:19.387Z,2.50
2019-01-10T16:07:47.880Z,2.50
2019-01-10T16:10:18.140Z,2.60
2019-01-10T16:12:46.917Z,2.60
2019-01-10T16:15:17.934Z,2.50
2019-01-10T16:17:48.431Z,2.40
2019-01-10T16:20:16.909Z,2.40
2019-01-10T16:22:45.613Z,2.30
2019-01-10T16:25:19.689Z,2.30
2019-01-10T16:27:48.428Z,2.30
2019-01-10T16:30:19.436Z,2.30
2019-01-10T16:32:47.868Z,2.30
2019-01-10T16:35:16.264Z,2.30
2019-01-10T16:37:44.757Z,2.20
2019-01-10T16:40:15.895Z,2.30
2019-01-10T16:42:44.325Z,2.30
2019-01-10T16:45:16.061Z,2.30
2019-01-10T16:47:44.580Z,2.30
2019-01-10T16:50:14.960Z,2.20
2019-01-10T16:52:43.455Z,2.20
2019-01-10T16:55:13.527Z,2.20
2019-01-10T16:57:41.976Z,2.20
2019-01-10T17:00:19.753Z,2.20
2019-01-10T17:02:48.180Z,2.10
2019-01-10T17:05:16.648Z,2.10
2019-01-10T17:07:45.991Z,2.10
2019-01-10T17:10:16.366Z,2.10
2019-01-10T17:12:45.850Z,2.10
2019-01-10T17:15:21.483Z,2.10
2019-01-10T17:17:50.218Z,2.10
2019-01-10T17:20:21.529Z,2.10
2019-01-10T17:22:50.105Z,2.10
2019-01-10T17:25:18.956Z,2.10
2019-01-10T17:27:47.628Z,2.10
2019-01-10T17:30:24.923Z,2.10
2019-01-10T17:33:07.220Z,2.00
2019-01-10T17:35:35.717Z,2.00
2019-01-10T17:38:04.772Z,2.00
2019-01-10T17:40:33.982Z,1.90
2019-01-10T17:43:03.825Z,1.90
2019-01-10T17:45:33.063Z,1.90
2019-01-10T17:48:02.502Z,1.90
2019-01-10T17:50:30.935Z,1.90
2019-01-10T17:52:59.351Z,1.90
2019-01-10T17:55:27.795Z,1.90
2019-01-10T17:57:56.212Z,1.90
2019-01-10T18:00:28.076Z,1.80
2019-01-10T18:02:56.550Z,1.80
2019-01-10T18:05:25.046Z,1.80
2019-01-10T18:07:54.363Z,1.80
2019-01-10T18:10:23.058Z,1.80
2019-01-10T18:12:51.473Z,1.80
2019-01-10T18:15:23.276Z,1.80
2019-01-10T18:17:51.834Z,1.80
2019-01-10T18:20:23.089Z,1.90
2019-01-10T18:22:51.515Z,1.90
2019-01-10T18:25:20.015Z,2.00
2019-01-10T18:27:48.443Z,2.00
2019-01-10T18:30:19.649Z,2.00
2019-01-10T18:32:48.131Z,2.10
2019-01-10T18:35:37.491Z,2.10
2019-01-10T18:38:05.897Z,2.10
2019-01-10T18:40:34.759Z,2.10
2019-01-10T18:43:03.366Z,2.10
2019-01-10T18:45:31.792Z,2.10
2019-01-10T18:48:02.164Z,2.10
2019-01-10T18:50:30.766Z,2.10
2019-01-10T18:52:59.209Z,2.00
2019-01-10T18:55:29.013Z,2.00
2019-01-10T18:57:57.612Z,2.00
2019-01-10T19:00:28.726Z,1.90
2019-01-10T19:02:57.868Z,1.80
2019-01-10T19:05:27.678Z,1.80
2019-01-10T19:07:56.097Z,1.90
2019-01-10T19:10:24.613Z,1.80
2019-01-10T19:12:55.010Z,1.80
2019-01-10T19:15:23.533Z,1.90
2019-01-10T19:17:51.963Z,1.90
2019-01-10T19:20:23.032Z,1.90
2019-01-10T19:22:51.515Z,2.00
2019-01-10T19:25:19.929Z,1.90
2019-01-10T19:27:48.484Z,1.90
2019-01-10T19:30:28.133Z,2.00
2019-01-10T19:32:56.681Z,2.10
2019-01-10T19:35:25.108Z,2.10
2019-01-10T19:37:53.880Z,2.10
2019-01-10T19:40:23.167Z,2.00
2019-01-10T19:42:51.642Z,1.90
2019-01-10T19:45:21.820Z,1.90
2019-01-10T19:47:50.522Z,1.80
2019-01-10T19:50:24.321Z,1.80
2019-01-10T19:52:52.827Z,1.70
2019-01-10T19:55:22.556Z,1.70
2019-01-10T19:57:51.393Z,1.70
2019-01-10T20:00:22.994Z,1.70
2019-01-10T20:02:51.487Z,1.60
2019-01-10T20:05:19.986Z,1.60
2019-01-10T20:07:48.411Z,1.50
2019-01-10T20:10:16.904Z,1.50
2019-01-10T20:12:45.322Z,1.40
2019-01-10T20:15:13.910Z,1.40
2019-01-10T20:17:42.397Z,1.50
2019-01-10T20:20:23.432Z,1.40
2019-01-10T20:22:51.996Z,1.40
2019-01-10T20:25:20.406Z,1.40
2019-01-10T20:27:48.864Z,1.40
2019-01-10T20:30:18.418Z,1.40
2019-01-10T20:32:46.916Z,1.40
2019-01-10T20:35:15.573Z,1.40
2019-01-10T20:37:44.061Z,1.50
2019-01-10T20:40:14.681Z,1.50
2019-01-10T20:42:43.117Z,1.60
2019-01-10T20:45:13.681Z,1.60
2019-01-10T20:47:42.632Z,1.60
2019-01-10T20:50:16.059Z,1.60
2019-01-10T20:52:45.442Z,1.40
2019-01-10T20:55:15.702Z,1.20
2019-01-10T20:57:44.123Z,1.00
2019-01-10T21:00:15.785Z,1.00
2019-01-10T21:02:44.290Z,1.10
2019-01-10T21:05:12.891Z,1.10
2019-01-10T21:07:41.345Z,1.10
2019-01-10T21:10:15.439Z,1.20
2019-01-10T21:12:44.040Z,1.20
2019-01-10T21:15:21.066Z,1.20
2019-01-10T21:17:49.649Z,1.30
2019-01-10T21:20:18.127Z,1.30
2019-01-10T21:22:49.406Z,1.30
2019-01-10T21:25:18.051Z,1.30
2019-01-10T21:27:48.133Z,1.20
2019-01-10T21:30:23.770Z,1.30
2019-01-10T21:32:52.217Z,1.30
2019-01-10T21:35:20.765Z,1.20
2019-01-10T21:37:49.521Z,1.20
2019-01-10T21:40:20.285Z,1.20
2019-01-10T21:42:49.572Z,1.20
2019-01-10T21:45:21.411Z,1.20
2019-01-10T21:47:49.918Z,1.20
2019-01-10T21:50:20.834Z,1.20
2019-01-10T21:52:49.256Z,1.20
2019-01-10T21:55:18.705Z,1.10
2019-01-10T21:57:47.585Z,1.00
2019-01-10T22:00:27.772Z,0.90
2019-01-10T22:02:56.705Z,0.90
2019-01-10T22:05:25.142Z,0.80
2019-01-10T22:07:54.651Z,0.70
2019-01-10T22:10:23.075Z,0.70
2019-01-10T22:12:51.521Z,0.60
2019-01-10T22:15:19.912Z,0.60
2019-01-10T22:17:48.355Z,0.50
2019-01-10T22:20:19.400Z,0.40
2019-01-10T22:22:47.900Z,0.30
2019-01-10T22:25:16.529Z,0.30
2019-01-10T22:27:44.964Z,0.30
2019-01-10T22:30:19.096Z,0.30
2019-01-10T22:32:47.904Z,0.20
2019-01-10T22:35:19.933Z,-0.10
2019-01-10T22:37:48.698Z,0.00
2019-01-10T22:40:19.144Z,0.00
2019-01-10T22:42:47.785Z,-0.20
2019-01-10T22:45:17.069Z,-0.20
2019-01-10T22:47:45.745Z,-0.30
2019-01-10T22:50:19.600Z,-0.30
2019-01-10T22:52:48.261Z,-0.40
2019-01-10T22:55:18.020Z,-0.50
2019-01-10T22:57:46.441Z,-0.50
2019-01-10T23:00:34.884Z,-0.60
2019-01-10T23:03:10.523Z,-0.60
2019-01-10T23:05:44.698Z,-0.80
2019-01-10T23:08:13.211Z,-0.80
2019-01-10T23:10:41.776Z,-0.90
2019-01-10T23:13:10.673Z,-1.00
2019-01-10T23:15:39.108Z,-1.00
2019-01-10T23:18:08.087Z,-1.00
2019-01-10T23:20:36.595Z,-1.10
2019-01-10T23:23:07.937Z,-1.10
2019-01-10T23:25:36.378Z,-1.20
2019-01-10T23:28:05.357Z,-1.30
2019-01-10T23:30:56.438Z,-1.30
2019-01-10T23:33:25.924Z,-1.40
2019-01-10T23:35:59.317Z,-1.40
2019-01-10T23:38:28.301Z,-1.50
2019-01-10T23:40:57.270Z,-1.60
2019-01-10T23:43:25.716Z,-1.70
2019-01-10T23:45:55.125Z,-1.80
2019-01-10T23:48:24.233Z,-1.80
2019-01-10T23:50:52.738Z,-1.80
2019-01-10T23:53:21.249Z,-2.00
2019-01-10T23:55:49.749Z,-2.00
2019-01-10T23:58:18.238Z,-2.10
